createdAt,value
2022-09-17T00:01:37.313Z,17.59
2022-09-17T00:04:06.520Z,17.51
2022-09-17T00:06:36.727Z,17.45
2022-09-17T00:09:07.720Z,17.43
2022-09-17T00:11:39.529Z,17.38
2022-09-17T00:14:14.409Z,17.29
2022-09-17T00:16:46.199Z,17.18
2022-09-17T00:19:17.512Z,17.17
2022-09-17T00:21:46.283Z,17.15
2022-09-17T00:24:17.034Z,16.98
2022-09-17T00:26:45.755Z,17.08
2022-09-17T00:29:15.617Z,16.89
2022-09-17T00:31:44.285Z,16.81
2022-09-17T00:34:12.572Z,16.97
2022-09-17T00:36:41.486Z,16.95
2022-09-17T00:39:11.720Z,16.92
2022-09-17T00:41:40.841Z,16.93
2022-09-17T00:44:49.684Z,16.89
2022-09-17T00:47:24.539Z,16.77
2022-09-17T00:49:57.630Z,16.79
2022-09-17T00:52:31.209Z,16.80
2022-09-17T00:55:09.068Z,16.52
2022-09-17T00:57:37.821Z,16.71
2022-09-17T01:00:13.176Z,16.61
2022-09-17T01:02:41.681Z,16.54
2022-09-17T01:05:11.307Z,16.51
2022-09-17T01:07:54.969Z,16.50
2022-09-17T01:10:42.656Z,16.45
2022-09-17T01:13:21.267Z,16.44
2022-09-17T01:15:59.647Z,16.47
2022-09-17T01:18:41.429Z,16.51
2022-09-17T01:21:34.632Z,16.49
2022-09-17T01:24:26.122Z,16.56
2022-09-17T01:27:26.667Z,16.58
2022-09-17T01:30:10.744Z,16.63
2022-09-17T01:32:46.920Z,16.67
2022-09-17T01:35:21.303Z,16.65
2022-09-17T01:37:59.225Z,16.36
2022-09-17T01:40:32.516Z,16.53
2022-09-17T01:43:09.707Z,16.50
2022-09-17T01:45:42.083Z,16.47
2022-09-17T01:48:17.613Z,16.46
2022-09-17T01:50:53.255Z,16.48
2022-09-17T01:53:25.985Z,16.48
2022-09-17T01:55:57.660Z,16.54
2022-09-17T01:58:30.299Z,16.56
2022-09-17T02:01:03.706Z,16.53
2022-09-17T02:03:37.603Z,16.52
2022-09-17T02:06:11.078Z,16.49
2022-09-17T02:08:44.819Z,16.51
2022-09-17T02:11:15.401Z,16.51
2022-09-17T02:13:48.306Z,16.51
2022-09-17T02:16:21.723Z,16.53
2022-09-17T02:18:59.583Z,16.54
2022-09-17T02:21:35.567Z,16.52
2022-09-17T02:24:10.289Z,16.53
2022-09-17T02:26:45.793Z,16.32
2022-09-17T02:29:24.052Z,16.51
2022-09-17T02:31:52.575Z,16.54
2022-09-17T02:34:27.625Z,16.56
2022-09-17T02:36:56.143Z,16.55
2022-09-17T02:39:24.425Z,16.56
2022-09-17T02:41:59.637Z,16.58
2022-09-17T02:44:37.744Z,16.58
2022-09-17T02:47:29.051Z,16.48
2022-09-17T02:50:14.886Z,16.61
2022-09-17T02:52:55.974Z,16.59
2022-09-17T02:55:33.016Z,16.61
2022-09-17T02:58:09.995Z,16.63
2022-09-17T03:00:38.655Z,16.63
2022-09-17T03:03:13.576Z,16.67
2022-09-17T03:05:44.548Z,16.69
2022-09-17T03:08:15.216Z,16.68
2022-09-17T03:10:43.434Z,16.67
2022-09-17T03:13:11.619Z,16.67
2022-09-17T03:15:39.921Z,16.64
2022-09-17T03:18:08.204Z,16.55
2022-09-17T03:20:36.611Z,16.57
2022-09-17T03:23:06.270Z,16.59
2022-09-17T03:25:34.517Z,16.54
2022-09-17T03:28:03.073Z,16.55
2022-09-17T03:30:31.399Z,16.53
2022-09-17T03:32:59.551Z,16.49
2022-09-17T03:35:27.833Z,16.46
2022-09-17T03:37:56.053Z,16.40
2022-09-17T03:40:25.749Z,16.35
2022-09-17T03:42:54.100Z,16.31
2022-09-17T03:45:22.406Z,16.29
2022-09-17T03:47:50.560Z,16.24
2022-09-17T03:50:19.880Z,16.22
2022-09-17T03:52:48.084Z,16.17
2022-09-17T03:55:17.434Z,16.13
2022-09-17T03:57:47.011Z,16.13
2022-09-17T04:00:17.584Z,16.08
2022-09-17T04:02:45.971Z,16.01
2022-09-17T04:05:14.363Z,15.89
2022-09-17T04:07:42.671Z,15.90
2022-09-17T04:10:11.244Z,15.86
2022-09-17T04:12:39.550Z,15.84
2022-09-17T04:15:10.053Z,15.84
2022-09-17T04:17:38.330Z,15.80
2022-09-17T04:20:07.563Z,15.69
2022-09-17T04:22:35.813Z,15.66
2022-09-17T04:25:04.090Z,15.63
2022-09-17T04:27:32.372Z,15.61
2022-09-17T04:30:01.736Z,15.55
2022-09-17T04:32:31.432Z,15.54
2022-09-17T04:34:59.688Z,15.52
2022-09-17T04:37:28.125Z,15.48
2022-09-17T04:39:56.402Z,15.45
2022-09-17T04:42:24.718Z,15.41
2022-09-17T04:44:53.073Z,15.38
2022-09-17T04:47:21.317Z,15.37
2022-09-17T04:49:52.156Z,15.34
2022-09-17T04:52:20.317Z,15.29
2022-09-17T04:54:48.570Z,15.25
2022-09-17T04:57:16.800Z,15.16
2022-09-17T04:59:45.025Z,15.15
2022-09-17T05:02:13.237Z,15.16
2022-09-17T05:04:41.496Z,15.19
2022-09-17T05:07:13.871Z,15.11
2022-09-17T05:09:42.510Z,15.11
2022-09-17T05:12:10.886Z,15.10
2022-09-17T05:14:39.188Z,15.12
2022-09-17T05:17:07.448Z,15.09
2022-09-17T05:19:35.736Z,15.07
2022-09-17T05:22:04.120Z,15.03
2022-09-17T05:24:33.857Z,15.09
2022-09-17T05:27:02.031Z,15.05
2022-09-17T05:29:30.251Z,15.08
2022-09-17T05:31:58.548Z,14.99
2022-09-17T05:34:27.928Z,15.05
2022-09-17T05:36:56.194Z,15.09
2022-09-17T05:39:25.540Z,15.11
2022-09-17T05:41:55.591Z,15.13
2022-09-17T05:44:26.045Z,15.11
2022-09-17T05:46:54.898Z,15.16
2022-09-17T05:49:23.122Z,15.17
2022-09-17T05:51:51.772Z,15.15
2022-09-17T05:54:19.989Z,15.15
2022-09-17T05:56:48.253Z,15.13
2022-09-17T05:59:17.889Z,15.11
2022-09-17T06:01:46.438Z,15.14
2022-09-17T06:04:14.756Z,15.19
2022-09-17T06:06:43.045Z,15.22
2022-09-17T06:09:11.861Z,15.25
2022-09-17T06:11:40.117Z,15.30
2022-09-17T06:14:08.390Z,15.33
2022-09-17T06:16:38.049Z,15.33
2022-09-17T06:19:07.709Z,15.31
2022-09-17T06:21:35.992Z,15.35
2022-09-17T06:24:04.769Z,15.43
2022-09-17T06:26:33.110Z,15.50
2022-09-17T06:29:02.101Z,15.68
2022-09-17T06:31:30.388Z,15.94
2022-09-17T06:34:01.648Z,16.22
2022-09-17T06:36:30.213Z,16.54
2022-09-17T06:38:58.528Z,16.91
2022-09-17T06:41:27.204Z,17.39
2022-09-17T06:43:57.113Z,17.82
2022-09-17T06:46:25.515Z,18.04
2022-09-17T06:48:53.748Z,18.33
2022-09-17T06:51:23.658Z,18.43
2022-09-17T06:53:52.044Z,18.36
2022-09-17T06:56:20.285Z,18.21
2022-09-17T06:58:48.585Z,18.16
2022-09-17T07:01:16.896Z,18.08
2022-09-17T07:03:45.237Z,17.99
2022-09-17T07:06:13.728Z,17.93
2022-09-17T07:08:43.763Z,17.87
2022-09-17T07:11:12.031Z,17.80
2022-09-17T07:13:40.536Z,17.78
2022-09-17T07:16:09.520Z,17.70
2022-09-17T07:18:37.925Z,17.75
2022-09-17T07:21:08.197Z,17.73
2022-09-17T07:23:37.803Z,17.61
2022-09-17T07:26:09.035Z,17.76
2022-09-17T07:28:40.280Z,17.83
2022-09-17T07:31:15.176Z,17.87
2022-09-17T07:33:44.679Z,17.88
2022-09-17T07:36:15.110Z,17.93
2022-09-17T07:38:43.377Z,18.01
2022-09-17T07:41:14.209Z,18.12
2022-09-17T07:43:43.851Z,18.20
2022-09-17T07:46:16.295Z,18.23
2022-09-17T07:48:44.634Z,18.21
2022-09-17T07:51:17.582Z,18.26
2022-09-17T07:53:46.786Z,18.34
2022-09-17T07:56:16.499Z,18.41
2022-09-17T07:58:44.814Z,18.46
2022-09-17T08:01:15.436Z,18.56
2022-09-17T08:03:45.140Z,18.64
2022-09-17T08:06:15.177Z,18.66
2022-09-17T08:08:43.598Z,18.75
2022-09-17T08:11:13.341Z,18.78
2022-09-17T08:13:43.241Z,18.84
2022-09-17T08:16:14.356Z,18.90
2022-09-17T08:18:44.852Z,19.07
2022-09-17T08:21:14.787Z,19.21
2022-09-17T08:23:44.678Z,19.37
2022-09-17T08:26:15.029Z,19.51
2022-09-17T08:28:47.860Z,19.75
2022-09-17T08:31:17.663Z,19.86
2022-09-17T08:33:46.936Z,20.21
2022-09-17T08:36:17.074Z,20.42
2022-09-17T08:38:45.373Z,20.61
2022-09-17T08:41:24.783Z,20.73
2022-09-17T08:44:08.441Z,20.79
2022-09-17T08:46:47.361Z,20.89
2022-09-17T08:49:27.394Z,21.06
2022-09-17T08:52:22.067Z,21.11
2022-09-17T08:54:59.484Z,20.99
2022-09-17T08:57:33.943Z,20.86
2022-09-17T09:00:12.272Z,20.68
2022-09-17T09:03:00.658Z,20.57
2022-09-17T09:05:33.563Z,20.47
2022-09-17T09:08:05.680Z,20.37
2022-09-17T09:10:45.687Z,20.22
2022-09-17T09:13:17.481Z,20.07
2022-09-17T09:15:50.322Z,20.07
2022-09-17T09:18:21.837Z,20.09
2022-09-17T09:20:53.684Z,19.78
2022-09-17T09:23:30.563Z,20.08
2022-09-17T09:26:12.036Z,20.03
2022-09-17T09:28:49.789Z,19.94
2022-09-17T09:31:47.276Z,19.91
2022-09-17T09:34:16.610Z,19.92
2022-09-17T09:36:45.426Z,19.91
2022-09-17T09:39:20.402Z,19.89
2022-09-17T09:41:54.364Z,19.88
2022-09-17T09:44:26.017Z,19.91
2022-09-17T09:47:12.463Z,19.87
2022-09-17T09:50:04.663Z,19.88
2022-09-17T09:52:50.211Z,20.02
2022-09-17T09:55:49.520Z,20.13
2022-09-17T09:58:26.036Z,20.23
2022-09-17T10:00:54.459Z,20.21
2022-09-17T10:03:25.566Z,20.17
2022-09-17T10:05:55.951Z,20.20
2022-09-17T10:08:24.948Z,20.27
2022-09-17T10:11:00.074Z,20.29
2022-09-17T10:13:30.624Z,20.35
2022-09-17T10:16:16.836Z,20.39
2022-09-17T10:18:47.309Z,20.39
2022-09-17T10:21:24.540Z,20.44
2022-09-17T10:23:52.880Z,20.50
2022-09-17T10:26:25.821Z,20.66
2022-09-17T10:28:56.358Z,20.90
2022-09-17T10:31:26.092Z,21.12
2022-09-17T10:33:58.772Z,21.29
2022-09-17T10:36:39.756Z,21.46
2022-09-17T10:39:36.746Z,21.59
2022-09-17T10:42:06.902Z,21.49
2022-09-17T10:44:36.389Z,21.75
2022-09-17T10:47:07.555Z,21.87
2022-09-17T10:49:41.212Z,22.01
2022-09-17T10:52:13.935Z,22.06
2022-09-17T10:55:08.985Z,22.05
2022-09-17T10:58:00.096Z,22.06
2022-09-17T11:00:36.462Z,22.07
2022-09-17T11:03:37.237Z,22.05
2022-09-17T11:06:30.610Z,22.10
2022-09-17T11:09:08.237Z,22.23
2022-09-17T11:11:45.890Z,22.29
2022-09-17T11:14:28.624Z,22.21
2022-09-17T11:17:16.705Z,22.18
2022-09-17T11:19:53.733Z,22.20
2022-09-17T11:22:32.771Z,22.19
2022-09-17T11:25:16.998Z,22.16
2022-09-17T11:28:01.341Z,22.11
2022-09-17T11:30:41.035Z,22.15
2022-09-17T11:33:41.636Z,22.29
2022-09-17T11:36:15.793Z,22.19
2022-09-17T11:38:50.960Z,22.43
2022-09-17T11:41:24.322Z,22.42
2022-09-17T11:44:05.321Z,22.35
2022-09-17T11:46:40.948Z,22.29
2022-09-17T11:49:16.745Z,22.42
2022-09-17T11:51:49.374Z,22.52
2022-09-17T11:54:25.129Z,22.50
2022-09-17T11:56:58.773Z,22.49
2022-09-17T11:59:33.580Z,22.37
2022-09-17T12:02:07.692Z,22.59
2022-09-17T12:04:45.715Z,22.62
2022-09-17T12:07:31.468Z,22.59
2022-09-17T12:10:20.556Z,22.59
2022-09-17T12:12:56.075Z,22.66
2022-09-17T12:15:26.785Z,22.66
2022-09-17T12:18:31.168Z,22.61
2022-09-17T12:21:03.196Z,22.61
2022-09-17T12:23:39.588Z,22.74
2022-09-17T12:26:25.581Z,22.78
2022-09-17T12:29:03.702Z,22.69
2022-09-17T12:31:41.892Z,22.58
2022-09-17T12:34:27.516Z,22.61
2022-09-17T12:37:05.777Z,22.71
2022-09-17T12:40:05.622Z,22.90
2022-09-17T12:42:57.143Z,22.98
2022-09-17T12:45:42.466Z,23.00
2022-09-17T12:48:39.680Z,23.00
2022-09-17T12:51:22.177Z,23.01
2022-09-17T12:54:02.966Z,23.01
2022-09-17T12:56:46.945Z,23.04
2022-09-17T12:59:20.357Z,23.04
2022-09-17T13:01:55.289Z,23.02
2022-09-17T13:05:00.547Z,23.02
2022-09-17T13:07:51.542Z,23.07
2022-09-17T13:10:50.241Z,23.11
2022-09-17T13:13:33.084Z,23.07
2022-09-17T13:16:15.562Z,23.10
2022-09-17T13:21:52.679Z,23.12
2022-09-17T13:24:25.287Z,23.21
2022-09-17T13:26:55.160Z,23.26
2022-09-17T13:30:01.351Z,23.31
2022-09-17T13:32:53.670Z,23.25
2022-09-17T13:35:50.690Z,23.30
2022-09-17T13:38:23.789Z,23.36
2022-09-17T13:40:53.376Z,23.41
2022-09-17T13:43:27.857Z,23.35
2022-09-17T13:46:18.424Z,23.28
2022-09-17T13:48:56.625Z,23.22
2022-09-17T13:51:45.865Z,23.21
2022-09-17T13:54:16.102Z,23.22
2022-09-17T13:56:47.193Z,23.14
2022-09-17T13:59:19.272Z,23.10
2022-09-17T14:02:18.839Z,23.03
2022-09-17T14:04:51.678Z,22.94
2022-09-17T14:07:34.117Z,22.90
2022-09-17T14:10:03.012Z,22.86
2022-09-17T14:12:56.293Z,22.82
2022-09-17T14:15:37.092Z,22.78
2022-09-17T14:18:59.062Z,22.63
2022-09-17T14:21:31.129Z,22.50
2022-09-17T14:24:03.759Z,22.47
2022-09-17T14:26:53.716Z,22.42
2022-09-17T14:29:43.231Z,22.32
2022-09-17T14:32:17.522Z,22.10
2022-09-17T14:34:47.277Z,22.21
2022-09-17T14:37:20.170Z,22.25
2022-09-17T14:39:50.380Z,22.15
2022-09-17T14:42:22.303Z,22.29
2022-09-17T14:44:58.184Z,22.26
2022-09-17T14:47:27.048Z,22.12
2022-09-17T14:49:56.788Z,22.16
2022-09-17T14:52:27.781Z,22.13
2022-09-17T14:55:17.293Z,22.06
2022-09-17T14:57:47.244Z,22.06
2022-09-17T15:00:23.030Z,22.10
2022-09-17T15:02:54.464Z,21.87
2022-09-17T15:05:28.208Z,22.02
2022-09-17T15:08:15.756Z,22.01
2022-09-17T15:10:49.950Z,21.75
2022-09-17T15:13:22.209Z,22.00
2022-09-17T15:16:03.714Z,22.00
2022-09-17T15:18:37.605Z,21.99
2022-09-17T15:21:19.087Z,22.00
2022-09-17T15:23:52.787Z,21.95
2022-09-17T15:26:27.333Z,21.76
2022-09-17T15:28:57.848Z,21.79
2022-09-17T15:31:26.145Z,21.73
2022-09-17T15:33:54.457Z,21.63
2022-09-17T15:36:27.549Z,21.58
2022-09-17T15:38:55.915Z,21.55
2022-09-17T15:41:30.283Z,21.54
2022-09-17T15:44:31.206Z,21.54
2022-09-17T15:47:34.198Z,21.52
2022-09-17T15:50:13.513Z,21.31
2022-09-17T15:52:43.537Z,21.43
2022-09-17T15:55:31.558Z,21.33
2022-09-17T15:58:00.947Z,21.20
2022-09-17T16:00:29.376Z,21.18
2022-09-17T16:02:57.827Z,21.18
2022-09-17T16:05:55.669Z,21.14
2022-09-17T16:08:35.571Z,21.05
2022-09-17T16:11:03.832Z,21.02
2022-09-17T16:13:32.021Z,20.94
2022-09-17T16:16:00.596Z,20.87
2022-09-17T16:18:28.911Z,20.79
2022-09-17T16:20:57.241Z,20.75
2022-09-17T16:23:26.861Z,20.73
2022-09-17T16:25:55.158Z,20.65
2022-09-17T16:28:23.527Z,20.56
2022-09-17T16:30:51.979Z,20.50
2022-09-17T16:33:20.328Z,20.43
2022-09-17T16:35:48.576Z,20.37
2022-09-17T16:38:16.859Z,20.33
2022-09-17T16:40:47.784Z,20.11
2022-09-17T16:43:16.271Z,20.22
2022-09-17T16:45:45.603Z,20.19
2022-09-17T16:48:13.824Z,20.13
2022-09-17T16:50:43.089Z,20.11
2022-09-17T16:53:11.434Z,20.05
2022-09-17T16:55:40.221Z,19.93
2022-09-17T16:58:09.939Z,19.84
2022-09-17T17:00:38.365Z,19.76
2022-09-17T17:03:06.874Z,19.70
2022-09-17T17:05:38.159Z,19.42
2022-09-17T17:08:06.999Z,19.60
2022-09-17T17:10:35.395Z,19.55
2022-09-17T17:13:03.628Z,19.48
2022-09-17T17:15:33.500Z,19.44
2022-09-17T17:18:01.934Z,19.37
2022-09-17T17:20:32.067Z,19.29
2022-09-17T17:23:00.329Z,19.24
2022-09-17T17:25:29.079Z,19.21
2022-09-17T17:27:58.644Z,19.14
2022-09-17T17:30:26.880Z,19.06
2022-09-17T17:32:56.563Z,19.03
2022-09-17T17:35:24.933Z,18.92
2022-09-17T17:37:53.307Z,18.88
2022-09-17T17:40:21.675Z,18.81
2022-09-17T17:42:53.405Z,18.75
2022-09-17T17:45:21.801Z,18.69
2022-09-17T17:47:50.151Z,18.65
2022-09-17T17:50:19.846Z,18.60
2022-09-17T17:52:49.821Z,18.55
2022-09-17T17:55:18.361Z,18.47
2022-09-17T17:57:46.569Z,18.40
2022-09-17T18:00:16.957Z,18.33
2022-09-17T18:02:45.240Z,18.25
2022-09-17T18:05:13.632Z,18.21
2022-09-17T18:07:43.289Z,18.20
2022-09-17T18:10:11.665Z,18.13
2022-09-17T18:12:39.911Z,18.06
2022-09-17T18:15:08.844Z,17.97
2022-09-17T18:17:38.206Z,17.91
2022-09-17T18:20:06.985Z,17.85
2022-09-17T18:22:35.225Z,17.79
2022-09-17T18:25:05.136Z,17.78
2022-09-17T18:27:33.419Z,17.73
2022-09-17T18:30:01.662Z,17.69
2022-09-17T18:32:30.012Z,17.57
2022-09-17T18:34:58.361Z,17.55
2022-09-17T18:37:26.693Z,17.51
2022-09-17T18:39:59.326Z,17.43
2022-09-17T18:42:29.509Z,17.38
2022-09-17T18:44:57.687Z,17.34
2022-09-17T18:47:25.926Z,17.30
2022-09-17T18:49:54.267Z,17.25
2022-09-17T18:52:22.660Z,17.24
2022-09-17T18:54:50.937Z,17.25
2022-09-17T18:57:19.264Z,17.24
2022-09-17T18:59:48.874Z,17.24
2022-09-17T19:02:17.207Z,17.18
2022-09-17T19:04:45.546Z,17.15
2022-09-17T19:07:13.833Z,17.10
2022-09-17T19:09:42.030Z,17.09
2022-09-17T19:12:10.307Z,17.05
2022-09-17T19:14:38.472Z,17.01
2022-09-17T19:17:09.025Z,16.98
2022-09-17T19:19:37.293Z,16.92
2022-09-17T19:22:07.953Z,16.87
2022-09-17T19:24:36.506Z,16.83
2022-09-17T19:27:04.882Z,16.78
2022-09-17T19:29:33.157Z,16.74
2022-09-17T19:32:01.522Z,16.71
2022-09-17T19:34:31.345Z,16.67
2022-09-17T19:36:59.855Z,16.64
2022-09-17T19:39:32.183Z,16.60
2022-09-17T19:42:02.397Z,16.57
2022-09-17T19:44:42.490Z,16.53
2022-09-17T19:47:11.658Z,16.48
2022-09-17T19:49:44.514Z,16.48
2022-09-17T19:52:16.710Z,16.44
2022-09-17T19:54:46.089Z,16.37
2022-09-17T19:57:14.492Z,16.26
2022-09-17T19:59:42.800Z,16.27
2022-09-17T20:02:12.560Z,16.22
2022-09-17T20:04:42.250Z,16.14
2022-09-17T20:07:10.493Z,16.10
2022-09-17T20:09:38.801Z,16.07
2022-09-17T20:12:07.354Z,16.02
2022-09-17T20:14:37.265Z,16.01
2022-09-17T20:17:06.844Z,15.99
2022-09-17T20:19:36.074Z,15.96
2022-09-17T20:22:05.753Z,15.95
2022-09-17T20:24:34.375Z,15.87
2022-09-17T20:27:02.618Z,15.85
2022-09-17T20:29:30.907Z,15.77
2022-09-17T20:31:59.188Z,15.85
2022-09-17T20:34:27.543Z,15.84
2022-09-17T20:37:12.317Z,15.81
2022-09-17T20:39:43.249Z,15.75
2022-09-17T20:42:11.520Z,15.75
2022-09-17T20:44:39.872Z,15.70
2022-09-17T20:47:08.155Z,15.71
2022-09-17T20:49:36.427Z,15.70
2022-09-17T20:52:04.985Z,15.73
2022-09-17T20:54:33.347Z,15.73
2022-09-17T20:57:02.999Z,15.77
2022-09-17T20:59:50.551Z,15.77
2022-09-17T21:02:19.400Z,15.72
2022-09-17T21:04:47.605Z,15.75
2022-09-17T21:07:15.868Z,15.74
2022-09-17T21:09:44.272Z,15.75
2022-09-17T21:12:14.990Z,15.75
2022-09-17T21:14:43.273Z,15.76
2022-09-17T21:17:11.530Z,15.66
2022-09-17T21:19:39.850Z,15.73
2022-09-17T21:22:08.131Z,15.69
2022-09-17T21:24:36.468Z,15.69
2022-09-17T21:27:04.738Z,15.70
2022-09-17T21:29:34.327Z,15.68
2022-09-17T21:32:02.850Z,15.67
2022-09-17T21:34:31.136Z,15.59
2022-09-17T21:36:59.374Z,15.54
2022-09-17T21:39:27.681Z,15.56
2022-09-17T21:41:55.921Z,15.47
2022-09-17T21:44:24.185Z,15.53
2022-09-17T21:46:57.691Z,15.56
2022-09-17T21:49:26.968Z,15.55
2022-09-17T21:51:55.209Z,15.51
2022-09-17T21:54:23.538Z,15.45
2022-09-17T21:56:51.705Z,15.37
2022-09-17T21:59:20.105Z,15.36
2022-09-17T22:01:50.869Z,15.23
2022-09-17T22:04:22.353Z,15.17
2022-09-17T22:06:51.186Z,15.10
2022-09-17T22:09:22.260Z,15.04
2022-09-17T22:11:51.215Z,14.95
2022-09-17T22:14:21.518Z,14.89
2022-09-17T22:16:53.127Z,14.81
2022-09-17T22:19:24.337Z,14.76
2022-09-17T22:21:55.005Z,14.70
2022-09-17T22:24:30.212Z,14.65
2022-09-17T22:26:58.646Z,14.56
2022-09-17T22:29:28.529Z,14.56
2022-09-17T22:31:57.318Z,14.57
2022-09-17T22:34:27.096Z,14.57
2022-09-17T22:36:55.450Z,14.58
2022-09-17T22:39:23.864Z,14.55
2022-09-17T22:41:52.421Z,15.40
2022-09-17T22:44:21.657Z,14.81
2022-09-17T22:46:51.702Z,14.83
2022-09-17T22:49:22.018Z,14.77
2022-09-17T22:51:51.619Z,14.69
2022-09-17T22:54:20.670Z,14.66
2022-09-17T22:56:50.733Z,14.63
2022-09-17T22:59:19.476Z,14.62
2022-09-17T23:01:47.993Z,14.39
2022-09-17T23:04:16.266Z,14.53
2022-09-17T23:06:44.601Z,14.48
2022-09-17T23:09:14.952Z,14.40
2022-09-17T23:11:43.655Z,14.36
2022-09-17T23:14:13.757Z,14.36
2022-09-17T23:16:44.242Z,14.14
2022-09-17T23:19:14.204Z,14.27
2022-09-17T23:21:43.383Z,14.19
2022-09-17T23:24:19.055Z,14.23
2022-09-17T23:26:47.695Z,13.96
2022-09-17T23:29:16.136Z,14.22
2022-09-17T23:31:44.572Z,14.24
2022-09-17T23:34:12.788Z,14.27
2022-09-17T23:36:41.491Z,14.33
2022-09-17T23:39:11.758Z,14.31
2022-09-17T23:41:45.583Z,14.32
2022-09-17T23:44:16.142Z,14.23
2022-09-17T23:46:46.006Z,14.18
2022-09-17T23:49:15.318Z,14.06
2022-09-17T23:51:43.804Z,13.99
2022-09-17T23:54:12.172Z,13.98
2022-09-17T23:56:41.912Z,13.98
2022-09-17T23:59:11.138Z,14.01
